Beira, Mozambique

11:49 PM CAT on September 17, 2014 (GMT +0200)
Beira | Change Station
CLOSE
Current Station
Airport
Location: Beira,
Elevation: 52 ft
Nearby Weather Stations

Elev 52 ft 19.80 °S, 34.91 °E | Updated 49 minutes ago

Fog
Fog
70 °F
Feels Like 70 °F
N
5
Wind Variable Wind from North

Today
High -- | Low -- °F
--% Chance of Precip.
Yesterday
High -- | Low -- °F
Precip. -- in
5:34 AM 5:35 PM
Waning Crescent, 33% visible
Pressure 29.89 in
Visibility 0.2 miles
Clouds
Dew Point 68 °F
Humidity 94%
Rainfall 0.00 in
Snow Depth Not available.
UV Not available.
Pollen Not available.
Air Quality Not available.
Flu Activity Not available.
METAR FQBR 172100Z 36004KT 0400 FG NSC 21/20 Q1012

More Conditions Fewer Conditions

Pressure 29.89 in
Visibility 0.2 miles
Clouds
Dew Point 68 °F
Humidity 94%
Rainfall 0.00 in
Snow Depth Not available.
UV Not available.
Pollen Not available.
Air Quality Not available.
Flu Activity Not available.
METAR FQBR 172100Z 36004KT 0400 FG NSC 21/20 Q1012

More Conditions Fewer Conditions

10-Day Weather Forecast

Almanac

Astronomy

Sep. 17, 2014 Rise Set
Actual Time 5:34 AM CAT 5:35 PM CAT
Civil Twilight 5:12 AM CAT 5:57 PM CAT
Nautical Twilight 4:47 AM CAT 6:22 PM CAT
Astronomical Twilight 4:21 AM CAT 6:48 PM CAT
Moon 12:40 AM CAT 12:08 PM CAT
Length of Visible Light 12h 44m
Length of Day
12h 00m
Tomorrow will be 1m 7s longer.
Waning Crescent, 33% of the Moon is Illuminated
Today
Waning Crescent
Sep 24
New
Oct 1
First Quarter
Oct 8
Full
Oct 15
Last Quarter

Today's Extremes

Country Highs Country Lows

Community

WunderPhotos

Upload Photos

1,754,171 photos uploaded!

Nearby

Snow Depth

Not available.

Earthquake Activity

City Distance Mag. Time & Date
No recent earthquake activity has been reported nearby.
Minimum magnitude displayed is 2.5.

Coastal Water Temperatures

Place Temperature
No Stations Reporting

Nearby Weather Stations